sensor_id;sensor_type;location;lat;lon;timestamp;P1;durP1;ratioP1;P2;durP2;ratioP2
65096;SDS011;51686;46.758;4.356;2023-11-25T00:01:47;3.30;;;1.52;;
65096;SDS011;51686;46.758;4.356;2023-11-25T00:04:34;4.78;;;1.58;;
65096;SDS011;51686;46.758;4.356;2023-11-25T00:07:21;3.78;;;1.50;;
65096;SDS011;51686;46.758;4.356;2023-11-25T00:10:08;1.92;;;1.38;;
65096;SDS011;51686;46.758;4.356;2023-11-25T00:12:55;3.65;;;1.60;;
65096;SDS011;51686;46.758;4.356;2023-11-25T00:15:42;2.65;;;1.55;;
65096;SDS011;51686;46.758;4.356;2023-11-25T00:18:29;3.10;;;1.40;;
65096;SDS011;51686;46.758;4.356;2023-11-25T00:21:16;4.28;;;1.70;;
65096;SDS011;51686;46.758;4.356;2023-11-25T00:24:03;3.83;;;1.70;;
65096;SDS011;51686;46.758;4.356;2023-11-25T00:26:50;2.88;;;1.48;;
65096;SDS011;51686;46.758;4.356;2023-11-25T00:29:37;3.00;;;1.63;;
65096;SDS011;51686;46.758;4.356;2023-11-25T00:32:24;2.72;;;1.42;;
65096;SDS011;51686;46.758;4.356;2023-11-25T00:35:11;2.33;;;1.50;;
65096;SDS011;51686;46.758;4.356;2023-11-25T00:37:58;3.38;;;1.40;;
65096;SDS011;51686;46.758;4.356;2023-11-25T00:40:45;3.35;;;1.60;;
65096;SDS011;51686;46.758;4.356;2023-11-25T00:43:33;3.20;;;1.52;;
65096;SDS011;51686;46.758;4.356;2023-11-25T00:46:20;2.25;;;1.40;;
65096;SDS011;51686;46.758;4.356;2023-11-25T00:49:07;2.28;;;1.45;;
65096;SDS011;51686;46.758;4.356;2023-11-25T00:51:55;2.22;;;1.30;;
65096;SDS011;51686;46.758;4.356;2023-11-25T00:54:42;2.70;;;1.30;;
65096;SDS011;51686;46.758;4.356;2023-11-25T00:57:29;1.48;;;1.20;;
65096;SDS011;51686;46.758;4.356;2023-11-25T01:00:16;1.50;;;1.20;;
65096;SDS011;51686;46.758;4.356;2023-11-25T01:03:03;1.40;;;1.30;;
65096;SDS011;51686;46.758;4.356;2023-11-25T01:05:50;1.23;;;1.13;;
65096;SDS011;51686;46.758;4.356;2023-11-25T01:08:39;1.77;;;1.20;;
65096;SDS011;51686;46.758;4.356;2023-11-25T01:11:25;2.08;;;1.30;;
65096;SDS011;51686;46.758;4.356;2023-11-25T01:14:12;1.65;;;1.20;;
65096;SDS011;51686;46.758;4.356;2023-11-25T01:16:59;2.13;;;1.10;;
65096;SDS011;51686;46.758;4.356;2023-11-25T01:19:47;2.17;;;1.13;;
65096;SDS011;51686;46.758;4.356;2023-11-25T01:22:34;1.65;;;1.20;;
65096;SDS011;51686;46.758;4.356;2023-11-25T01:25:22;2.33;;;1.20;;
65096;SDS011;51686;46.758;4.356;2023-11-25T01:28:09;2.50;;;1.20;;
65096;SDS011;51686;46.758;4.356;2023-11-25T01:30:56;2.67;;;1.23;;
65096;SDS011;51686;46.758;4.356;2023-11-25T01:33:43;1.20;;;1.10;;
65096;SDS011;51686;46.758;4.356;2023-11-25T01:36:30;3.13;;;1.30;;
65096;SDS011;51686;46.758;4.356;2023-11-25T01:39:17;3.05;;;1.30;;
65096;SDS011;51686;46.758;4.356;2023-11-25T01:42:04;1.50;;;1.20;;
65096;SDS011;51686;46.758;4.356;2023-11-25T01:44:51;3.03;;;1.20;;
65096;SDS011;51686;46.758;4.356;2023-11-25T01:47:38;1.45;;;1.20;;
65096;SDS011;51686;46.758;4.356;2023-11-25T01:50:25;1.75;;;1.27;;
65096;SDS011;51686;46.758;4.356;2023-11-25T01:53:14;3.17;;;1.23;;
65096;SDS011;51686;46.758;4.356;2023-11-25T01:56:06;3.05;;;1.27;;
65096;SDS011;51686;46.758;4.356;2023-11-25T01:58:53;2.35;;;1.33;;
65096;SDS011;51686;46.758;4.356;2023-11-25T02:01:40;2.78;;;1.30;;
65096;SDS011;51686;46.758;4.356;2023-11-25T02:04:28;2.50;;;1.20;;
65096;SDS011;51686;46.758;4.356;2023-11-25T02:07:15;1.23;;;1.13;;
65096;SDS011;51686;46.758;4.356;2023-11-25T02:10:02;1.30;;;1.20;;
65096;SDS011;51686;46.758;4.356;2023-11-25T02:12:49;1.83;;;1.10;;
65096;SDS011;51686;46.758;4.356;2023-11-25T02:15:36;1.23;;;1.13;;
65096;SDS011;51686;46.758;4.356;2023-11-25T02:18:23;2.38;;;1.20;;
65096;SDS011;51686;46.758;4.356;2023-11-25T02:21:11;1.50;;;1.02;;
65096;SDS011;51686;46.758;4.356;2023-11-25T02:23:58;2.00;;;1.23;;
65096;SDS011;51686;46.758;4.356;2023-11-25T02:26:45;2.05;;;1.30;;
65096;SDS011;51686;46.758;4.356;2023-11-25T02:29:32;1.70;;;1.20;;
65096;SDS011;51686;46.758;4.356;2023-11-25T02:32:19;2.28;;;1.25;;
65096;SDS011;51686;46.758;4.356;2023-11-25T02:35:06;2.88;;;1.33;;
65096;SDS011;51686;46.758;4.356;2023-11-25T02:37:54;2.05;;;1.23;;
65096;SDS011;51686;46.758;4.356;2023-11-25T02:40:43;1.40;;;1.30;;
65096;SDS011;51686;46.758;4.356;2023-11-25T02:43:30;1.42;;;1.13;;
65096;SDS011;51686;46.758;4.356;2023-11-25T02:46:18;1.00;;;1.00;;
65096;SDS011;51686;46.758;4.356;2023-11-25T02:49:05;1.30;;;1.20;;
65096;SDS011;51686;46.758;4.356;2023-11-25T02:51:53;1.30;;;1.10;;
65096;SDS011;51686;46.758;4.356;2023-11-25T02:54:42;1.55;;;1.25;;
65096;SDS011;51686;46.758;4.356;2023-11-25T02:57:31;3.88;;;1.30;;
65096;SDS011;51686;46.758;4.356;2023-11-25T03:00:18;2.70;;;1.33;;
65096;SDS011;51686;46.758;4.356;2023-11-25T03:03:11;1.35;;;1.10;;
65096;SDS011;51686;46.758;4.356;2023-11-25T03:06:04;1.85;;;1.13;;
65096;SDS011;51686;46.758;4.356;2023-11-25T03:08:52;1.50;;;1.20;;
65096;SDS011;51686;46.758;4.356;2023-11-25T03:14:28;1.98;;;1.20;;
65096;SDS011;51686;46.758;4.356;2023-11-25T03:17:15;1.70;;;1.10;;
65096;SDS011;51686;46.758;4.356;2023-11-25T03:20:02;2.17;;;1.20;;
65096;SDS011;51686;46.758;4.356;2023-11-25T03:22:49;1.27;;;1.17;;
65096;SDS011;51686;46.758;4.356;2023-11-25T03:25:36;2.28;;;1.30;;
65096;SDS011;51686;46.758;4.356;2023-11-25T03:31:13;2.50;;;1.30;;
65096;SDS011;51686;46.758;4.356;2023-11-25T03:34:00;1.95;;;1.20;;
65096;SDS011;51686;46.758;4.356;2023-11-25T03:36:47;4.28;;;1.60;;
65096;SDS011;51686;46.758;4.356;2023-11-25T03:39:34;2.92;;;1.20;;
65096;SDS011;51686;46.758;4.356;2023-11-25T03:42:22;2.30;;;1.30;;
65096;SDS011;51686;46.758;4.356;2023-11-25T03:45:10;2.10;;;1.50;;
65096;SDS011;51686;46.758;4.356;2023-11-25T03:50:46;3.35;;;1.30;;
65096;SDS011;51686;46.758;4.356;2023-11-25T03:53:33;1.92;;;1.38;;
65096;SDS011;51686;46.758;4.356;2023-11-25T03:56:20;1.35;;;1.23;;
65096;SDS011;51686;46.758;4.356;2023-11-25T03:59:08;1.88;;;1.20;;
65096;SDS011;51686;46.758;4.356;2023-11-25T04:01:55;1.65;;;1.20;;
65096;SDS011;51686;46.758;4.356;2023-11-25T04:04:42;1.83;;;1.20;;
65096;SDS011;51686;46.758;4.356;2023-11-25T04:07:31;1.75;;;1.23;;
65096;SDS011;51686;46.758;4.356;2023-11-25T04:10:18;2.15;;;1.25;;
65096;SDS011;51686;46.758;4.356;2023-11-25T04:13:06;2.38;;;1.30;;
65096;SDS011;51686;46.758;4.356;2023-11-25T04:15:52;1.90;;;1.35;;
65096;SDS011;51686;46.758;4.356;2023-11-25T04:18:39;2.05;;;1.75;;
65096;SDS011;51686;46.758;4.356;2023-11-25T04:21:28;1.65;;;1.25;;
65096;SDS011;51686;46.758;4.356;2023-11-25T04:24:15;1.95;;;1.25;;
65096;SDS011;51686;46.758;4.356;2023-11-25T04:27:03;4.68;;;1.30;;
65096;SDS011;51686;46.758;4.356;2023-11-25T04:29:50;1.67;;;1.20;;
65096;SDS011;51686;46.758;4.356;2023-11-25T04:32:39;1.27;;;1.17;;
65096;SDS011;51686;46.758;4.356;2023-11-25T04:35:27;1.60;;;1.30;;
65096;SDS011;51686;46.758;4.356;2023-11-25T04:38:14;1.30;;;1.20;;
65096;SDS011;51686;46.758;4.356;2023-11-25T04:41:00;2.45;;;1.40;;
65096;SDS011;51686;46.758;4.356;2023-11-25T04:43:48;2.38;;;1.40;;
65096;SDS011;51686;46.758;4.356;2023-11-25T04:46:35;3.08;;;1.40;;
65096;SDS011;51686;46.758;4.356;2023-11-25T04:49:22;3.03;;;1.33;;
65096;SDS011;51686;46.758;4.356;2023-11-25T04:52:09;3.67;;;1.60;;
65096;SDS011;51686;46.758;4.356;2023-11-25T04:54:56;2.15;;;1.40;;
65096;SDS011;51686;46.758;4.356;2023-11-25T04:57:42;2.65;;;1.30;;
65096;SDS011;51686;46.758;4.356;2023-11-25T05:00:31;1.70;;;1.30;;
65096;SDS011;51686;46.758;4.356;2023-11-25T05:03:18;2.00;;;1.17;;
65096;SDS011;51686;46.758;4.356;2023-11-25T05:06:07;1.50;;;1.30;;
65096;SDS011;51686;46.758;4.356;2023-11-25T05:08:56;3.67;;;1.42;;
65096;SDS011;51686;46.758;4.356;2023-11-25T05:11:43;4.40;;;1.40;;
65096;SDS011;51686;46.758;4.356;2023-11-25T05:14:29;2.50;;;1.33;;
65096;SDS011;51686;46.758;4.356;2023-11-25T05:17:17;2.67;;;1.40;;
65096;SDS011;51686;46.758;4.356;2023-11-25T05:20:05;4.07;;;1.40;;
65096;SDS011;51686;46.758;4.356;2023-11-25T05:22:56;2.88;;;1.30;;
65096;SDS011;51686;46.758;4.356;2023-11-25T05:25:43;4.03;;;1.42;;
65096;SDS011;51686;46.758;4.356;2023-11-25T05:28:31;2.53;;;1.30;;
65096;SDS011;51686;46.758;4.356;2023-11-25T05:31:18;3.67;;;1.42;;
65096;SDS011;51686;46.758;4.356;2023-11-25T05:34:05;2.55;;;1.30;;
65096;SDS011;51686;46.758;4.356;2023-11-25T05:36:52;2.50;;;1.38;;
65096;SDS011;51686;46.758;4.356;2023-11-25T05:39:39;2.03;;;1.30;;
65096;SDS011;51686;46.758;4.356;2023-11-25T05:42:27;2.83;;;1.40;;
65096;SDS011;51686;46.758;4.356;2023-11-25T05:45:14;3.00;;;1.40;;
65096;SDS011;51686;46.758;4.356;2023-11-25T05:48:01;3.17;;;1.50;;
65096;SDS011;51686;46.758;4.356;2023-11-25T05:50:49;2.75;;;1.40;;
65096;SDS011;51686;46.758;4.356;2023-11-25T05:53:36;3.08;;;1.58;;
65096;SDS011;51686;46.758;4.356;2023-11-25T05:56:23;4.30;;;1.85;;
65096;SDS011;51686;46.758;4.356;2023-11-25T05:59:13;4.45;;;1.48;;
65096;SDS011;51686;46.758;4.356;2023-11-25T06:02:01;3.25;;;1.40;;
65096;SDS011;51686;46.758;4.356;2023-11-25T06:04:48;2.83;;;1.40;;
65096;SDS011;51686;46.758;4.356;2023-11-25T06:07:35;4.32;;;1.60;;
65096;SDS011;51686;46.758;4.356;2023-11-25T06:10:22;3.22;;;1.50;;
65096;SDS011;51686;46.758;4.356;2023-11-25T06:13:09;4.28;;;1.60;;
65096;SDS011;51686;46.758;4.356;2023-11-25T06:15:56;3.70;;;1.58;;
65096;SDS011;51686;46.758;4.356;2023-11-25T06:18:43;4.28;;;1.60;;
65096;SDS011;51686;46.758;4.356;2023-11-25T06:21:30;4.10;;;1.60;;
65096;SDS011;51686;46.758;4.356;2023-11-25T06:24:18;3.45;;;1.50;;
65096;SDS011;51686;46.758;4.356;2023-11-25T06:27:05;3.72;;;1.40;;
65096;SDS011;51686;46.758;4.356;2023-11-25T06:29:51;3.08;;;1.60;;
65096;SDS011;51686;46.758;4.356;2023-11-25T06:32:38;4.85;;;1.70;;
65096;SDS011;51686;46.758;4.356;2023-11-25T06:35:25;4.90;;;1.80;;
65096;SDS011;51686;46.758;4.356;2023-11-25T06:38:13;3.15;;;1.63;;
65096;SDS011;51686;46.758;4.356;2023-11-25T06:41:00;3.40;;;1.60;;
65096;SDS011;51686;46.758;4.356;2023-11-25T06:43:50;5.40;;;1.90;;
65096;SDS011;51686;46.758;4.356;2023-11-25T06:46:37;5.28;;;2.10;;
65096;SDS011;51686;46.758;4.356;2023-11-25T06:49:24;4.65;;;2.00;;
65096;SDS011;51686;46.758;4.356;2023-11-25T06:52:12;5.38;;;2.05;;
65096;SDS011;51686;46.758;4.356;2023-11-25T06:54:59;5.15;;;2.05;;
65096;SDS011;51686;46.758;4.356;2023-11-25T06:57:47;4.63;;;1.90;;
65096;SDS011;51686;46.758;4.356;2023-11-25T07:00:36;2.67;;;1.60;;
65096;SDS011;51686;46.758;4.356;2023-11-25T07:03:26;4.32;;;1.85;;
65096;SDS011;51686;46.758;4.356;2023-11-25T07:06:14;5.53;;;1.90;;
65096;SDS011;51686;46.758;4.356;2023-11-25T07:09:04;3.55;;;1.60;;
65096;SDS011;51686;46.758;4.356;2023-11-25T07:11:51;4.82;;;1.80;;
65096;SDS011;51686;46.758;4.356;2023-11-25T07:14:40;4.32;;;1.80;;
65096;SDS011;51686;46.758;4.356;2023-11-25T07:17:27;4.10;;;1.77;;
65096;SDS011;51686;46.758;4.356;2023-11-25T07:20:14;4.68;;;1.83;;
65096;SDS011;51686;46.758;4.356;2023-11-25T07:23:04;4.53;;;2.00;;
65096;SDS011;51686;46.758;4.356;2023-11-25T07:25:51;5.82;;;1.70;;
65096;SDS011;51686;46.758;4.356;2023-11-25T07:28:39;5.03;;;1.90;;
65096;SDS011;51686;46.758;4.356;2023-11-25T07:31:26;3.78;;;1.80;;
65096;SDS011;51686;46.758;4.356;2023-11-25T07:34:13;3.05;;;1.63;;
65096;SDS011;51686;46.758;4.356;2023-11-25T07:37:00;3.92;;;1.83;;
65096;SDS011;51686;46.758;4.356;2023-11-25T07:39:47;5.97;;;1.85;;
65096;SDS011;51686;46.758;4.356;2023-11-25T07:42:35;3.75;;;1.80;;
65096;SDS011;51686;46.758;4.356;2023-11-25T07:45:24;4.30;;;1.67;;
65096;SDS011;51686;46.758;4.356;2023-11-25T07:48:12;3.58;;;1.70;;
65096;SDS011;51686;46.758;4.356;2023-11-25T07:50:59;3.35;;;1.60;;
65096;SDS011;51686;46.758;4.356;2023-11-25T07:53:46;2.90;;;1.70;;
65096;SDS011;51686;46.758;4.356;2023-11-25T07:56:33;5.95;;;1.80;;
65096;SDS011;51686;46.758;4.356;2023-11-25T07:59:21;2.45;;;1.50;;
65096;SDS011;51686;46.758;4.356;2023-11-25T08:02:08;4.10;;;1.70;;
65096;SDS011;51686;46.758;4.356;2023-11-25T08:04:55;2.90;;;1.55;;
65096;SDS011;51686;46.758;4.356;2023-11-25T08:07:42;3.95;;;1.70;;
65096;SDS011;51686;46.758;4.356;2023-11-25T08:10:29;3.92;;;1.67;;
65096;SDS011;51686;46.758;4.356;2023-11-25T08:13:21;4.63;;;1.70;;
65096;SDS011;51686;46.758;4.356;2023-11-25T08:16:09;4.15;;;1.83;;
65096;SDS011;51686;46.758;4.356;2023-11-25T08:18:56;4.82;;;1.70;;
65096;SDS011;51686;46.758;4.356;2023-11-25T08:21:42;6.57;;;1.80;;
65096;SDS011;51686;46.758;4.356;2023-11-25T08:24:30;2.78;;;1.60;;
65096;SDS011;51686;46.758;4.356;2023-11-25T08:27:17;2.90;;;1.67;;
65096;SDS011;51686;46.758;4.356;2023-11-25T08:30:04;3.78;;;1.58;;
65096;SDS011;51686;46.758;4.356;2023-11-25T08:32:59;3.70;;;1.80;;
65096;SDS011;51686;46.758;4.356;2023-11-25T08:35:46;7.20;;;1.98;;
65096;SDS011;51686;46.758;4.356;2023-11-25T08:38:33;3.67;;;1.60;;
65096;SDS011;51686;46.758;4.356;2023-11-25T08:41:21;5.53;;;1.90;;
65096;SDS011;51686;46.758;4.356;2023-11-25T08:44:08;1.67;;;1.40;;
65096;SDS011;51686;46.758;4.356;2023-11-25T08:46:59;3.65;;;1.60;;
65096;SDS011;51686;46.758;4.356;2023-11-25T08:49:46;3.92;;;1.60;;
65096;SDS011;51686;46.758;4.356;2023-11-25T08:52:35;3.67;;;1.42;;
65096;SDS011;51686;46.758;4.356;2023-11-25T08:55:25;3.03;;;1.52;;
65096;SDS011;51686;46.758;4.356;2023-11-25T08:58:12;3.17;;;1.48;;
65096;SDS011;51686;46.758;4.356;2023-11-25T09:01:00;4.95;;;1.88;;
65096;SDS011;51686;46.758;4.356;2023-11-25T09:03:48;6.88;;;1.92;;
65096;SDS011;51686;46.758;4.356;2023-11-25T09:06:35;4.70;;;1.65;;
65096;SDS011;51686;46.758;4.356;2023-11-25T09:09:26;4.45;;;1.80;;
65096;SDS011;51686;46.758;4.356;2023-11-25T09:12:13;4.50;;;1.58;;
65096;SDS011;51686;46.758;4.356;2023-11-25T09:15:01;5.57;;;1.73;;
65096;SDS011;51686;46.758;4.356;2023-11-25T09:17:51;4.35;;;1.70;;
65096;SDS011;51686;46.758;4.356;2023-11-25T09:20:38;2.80;;;1.48;;
65096;SDS011;51686;46.758;4.356;2023-11-25T09:23:25;5.40;;;1.63;;
65096;SDS011;51686;46.758;4.356;2023-11-25T09:26:12;5.20;;;1.70;;
65096;SDS011;51686;46.758;4.356;2023-11-25T09:29:00;4.57;;;1.60;;
65096;SDS011;51686;46.758;4.356;2023-11-25T09:31:47;5.45;;;1.67;;
65096;SDS011;51686;46.758;4.356;2023-11-25T09:34:34;4.07;;;1.60;;
65096;SDS011;51686;46.758;4.356;2023-11-25T09:37:21;3.67;;;1.60;;
65096;SDS011;51686;46.758;4.356;2023-11-25T09:40:08;4.38;;;1.60;;
65096;SDS011;51686;46.758;4.356;2023-11-25T09:43:06;2.83;;;1.45;;
65096;SDS011;51686;46.758;4.356;2023-11-25T09:45:53;2.97;;;1.40;;
65096;SDS011;51686;46.758;4.356;2023-11-25T09:48:40;3.13;;;1.60;;
65096;SDS011;51686;46.758;4.356;2023-11-25T09:51:27;4.03;;;1.60;;
65096;SDS011;51686;46.758;4.356;2023-11-25T09:54:20;3.15;;;1.50;;
65096;SDS011;51686;46.758;4.356;2023-11-25T09:57:10;5.32;;;1.60;;
65096;SDS011;51686;46.758;4.356;2023-11-25T10:00:00;3.15;;;1.60;;
65096;SDS011;51686;46.758;4.356;2023-11-25T10:02:52;3.75;;;1.48;;
65096;SDS011;51686;46.758;4.356;2023-11-25T10:05:40;2.70;;;1.52;;
65096;SDS011;51686;46.758;4.356;2023-11-25T10:08:27;3.17;;;1.50;;
65096;SDS011;51686;46.758;4.356;2023-11-25T10:11:14;4.72;;;1.80;;
65096;SDS011;51686;46.758;4.356;2023-11-25T10:16:54;5.20;;;1.95;;
65096;SDS011;51686;46.758;4.356;2023-11-25T10:19:41;4.40;;;1.70;;
65096;SDS011;51686;46.758;4.356;2023-11-25T10:22:28;4.25;;;1.80;;
65096;SDS011;51686;46.758;4.356;2023-11-25T10:25:18;4.68;;;1.70;;
65096;SDS011;51686;46.758;4.356;2023-11-25T10:28:06;2.88;;;1.65;;
65096;SDS011;51686;46.758;4.356;2023-11-25T10:30:56;3.53;;;1.58;;
65096;SDS011;51686;46.758;4.356;2023-11-25T10:33:43;2.92;;;1.63;;
65096;SDS011;51686;46.758;4.356;2023-11-25T10:36:30;5.47;;;1.90;;
65096;SDS011;51686;46.758;4.356;2023-11-25T10:39:17;3.00;;;1.65;;
65096;SDS011;51686;46.758;4.356;2023-11-25T10:42:07;3.75;;;1.77;;
65096;SDS011;51686;46.758;4.356;2023-11-25T10:44:56;3.38;;;1.67;;
65096;SDS011;51686;46.758;4.356;2023-11-25T10:47:44;3.70;;;1.63;;
65096;SDS011;51686;46.758;4.356;2023-11-25T10:50:31;4.10;;;2.08;;
65096;SDS011;51686;46.758;4.356;2023-11-25T10:53:18;4.85;;;1.75;;
65096;SDS011;51686;46.758;4.356;2023-11-25T10:56:06;3.72;;;1.80;;
65096;SDS011;51686;46.758;4.356;2023-11-25T10:58:54;4.40;;;1.55;;
65096;SDS011;51686;46.758;4.356;2023-11-25T11:01:42;4.70;;;1.60;;
65096;SDS011;51686;46.758;4.356;2023-11-25T11:04:32;6.27;;;1.80;;
65096;SDS011;51686;46.758;4.356;2023-11-25T11:07:24;5.80;;;1.67;;
65096;SDS011;51686;46.758;4.356;2023-11-25T11:10:14;2.72;;;1.70;;
65096;SDS011;51686;46.758;4.356;2023-11-25T11:13:09;4.15;;;1.60;;
65096;SDS011;51686;46.758;4.356;2023-11-25T11:15:58;4.07;;;1.70;;
65096;SDS011;51686;46.758;4.356;2023-11-25T11:18:47;3.72;;;1.80;;
65096;SDS011;51686;46.758;4.356;2023-11-25T11:24:28;3.20;;;1.63;;
65096;SDS011;51686;46.758;4.356;2023-11-25T11:28:12;3.65;;;1.70;;
65096;SDS011;51686;46.758;4.356;2023-11-25T11:33:58;6.28;;;1.90;;
65096;SDS011;51686;46.758;4.356;2023-11-25T11:36:45;4.88;;;1.73;;
65096;SDS011;51686;46.758;4.356;2023-11-25T11:40:18;6.32;;;2.25;;
65096;SDS011;51686;46.758;4.356;2023-11-25T11:42:41;5.65;;;1.90;;
65096;SDS011;51686;46.758;4.356;2023-11-25T11:45:32;4.32;;;1.80;;
65096;SDS011;51686;46.758;4.356;2023-11-25T11:48:20;4.13;;;2.00;;
65096;SDS011;51686;46.758;4.356;2023-11-25T11:51:09;4.88;;;1.92;;
65096;SDS011;51686;46.758;4.356;2023-11-25T11:57:05;6.38;;;1.80;;
65096;SDS011;51686;46.758;4.356;2023-11-25T12:00:03;5.60;;;1.85;;
65096;SDS011;51686;46.758;4.356;2023-11-25T12:03:02;4.93;;;1.85;;
65096;SDS011;51686;46.758;4.356;2023-11-25T12:05:49;4.43;;;1.88;;
65096;SDS011;51686;46.758;4.356;2023-11-25T12:08:38;6.00;;;2.45;;
65096;SDS011;51686;46.758;4.356;2023-11-25T12:11:25;9.13;;;2.10;;
65096;SDS011;51686;46.758;4.356;2023-11-25T12:14:12;6.43;;;2.33;;
65096;SDS011;51686;46.758;4.356;2023-11-25T12:16:59;5.05;;;2.05;;
65096;SDS011;51686;46.758;4.356;2023-11-25T12:19:46;6.90;;;2.10;;
65096;SDS011;51686;46.758;4.356;2023-11-25T12:22:33;6.47;;;2.00;;
65096;SDS011;51686;46.758;4.356;2023-11-25T12:25:20;6.85;;;2.42;;
65096;SDS011;51686;46.758;4.356;2023-11-25T12:28:08;5.72;;;2.13;;
65096;SDS011;51686;46.758;4.356;2023-11-25T12:30:56;7.75;;;2.22;;
65096;SDS011;51686;46.758;4.356;2023-11-25T12:33:43;9.00;;;2.67;;
65096;SDS011;51686;46.758;4.356;2023-11-25T12:36:30;11.60;;;4.13;;
65096;SDS011;51686;46.758;4.356;2023-11-25T12:39:17;12.48;;;4.20;;
65096;SDS011;51686;46.758;4.356;2023-11-25T12:42:05;10.23;;;3.50;;
65096;SDS011;51686;46.758;4.356;2023-11-25T12:44:51;10.30;;;3.35;;
65096;SDS011;51686;46.758;4.356;2023-11-25T12:47:47;9.40;;;3.17;;
65096;SDS011;51686;46.758;4.356;2023-11-25T12:53:52;10.65;;;3.40;;
65096;SDS011;51686;46.758;4.356;2023-11-25T12:56:43;10.20;;;3.45;;
65096;SDS011;51686;46.758;4.356;2023-11-25T12:59:36;11.32;;;4.20;;
65096;SDS011;51686;46.758;4.356;2023-11-25T13:02:24;13.02;;;5.00;;
65096;SDS011;51686;46.758;4.356;2023-11-25T13:05:18;11.48;;;4.43;;
65096;SDS011;51686;46.758;4.356;2023-11-25T13:08:23;9.95;;;4.22;;
65096;SDS011;51686;46.758;4.356;2023-11-25T13:11:14;11.75;;;4.15;;
65096;SDS011;51686;46.758;4.356;2023-11-25T13:14:04;9.73;;;3.88;;
65096;SDS011;51686;46.758;4.356;2023-11-25T13:16:51;11.52;;;4.47;;
65096;SDS011;51686;46.758;4.356;2023-11-25T13:19:40;11.75;;;4.25;;
65096;SDS011;51686;46.758;4.356;2023-11-25T13:22:27;11.25;;;4.38;;
65096;SDS011;51686;46.758;4.356;2023-11-25T13:25:14;12.60;;;4.70;;
65096;SDS011;51686;46.758;4.356;2023-11-25T13:28:01;12.20;;;4.35;;
65096;SDS011;51686;46.758;4.356;2023-11-25T13:30:48;12.00;;;4.90;;
65096;SDS011;51686;46.758;4.356;2023-11-25T13:33:35;12.52;;;4.90;;
65096;SDS011;51686;46.758;4.356;2023-11-25T13:36:22;10.98;;;4.18;;
65096;SDS011;51686;46.758;4.356;2023-11-25T13:39:09;12.05;;;4.45;;
65096;SDS011;51686;46.758;4.356;2023-11-25T13:42:06;11.65;;;4.82;;
65096;SDS011;51686;46.758;4.356;2023-11-25T13:44:54;12.65;;;4.45;;
65096;SDS011;51686;46.758;4.356;2023-11-25T13:47:41;12.10;;;4.50;;
65096;SDS011;51686;46.758;4.356;2023-11-25T13:50:29;10.40;;;4.00;;
65096;SDS011;51686;46.758;4.356;2023-11-25T13:53:16;10.20;;;4.15;;
65096;SDS011;51686;46.758;4.356;2023-11-25T13:56:05;10.82;;;4.20;;
65096;SDS011;51686;46.758;4.356;2023-11-25T13:58:55;10.65;;;4.03;;
65096;SDS011;51686;46.758;4.356;2023-11-25T14:01:42;11.05;;;4.15;;
65096;SDS011;51686;46.758;4.356;2023-11-25T14:04:29;10.32;;;4.05;;
65096;SDS011;51686;46.758;4.356;2023-11-25T14:07:18;9.00;;;3.42;;
65096;SDS011;51686;46.758;4.356;2023-11-25T14:10:06;9.07;;;3.55;;
65096;SDS011;51686;46.758;4.356;2023-11-25T14:12:54;8.55;;;3.40;;
65096;SDS011;51686;46.758;4.356;2023-11-25T14:15:42;8.48;;;3.10;;
65096;SDS011;51686;46.758;4.356;2023-11-25T14:18:29;9.35;;;3.50;;
65096;SDS011;51686;46.758;4.356;2023-11-25T14:21:17;9.48;;;3.88;;
65096;SDS011;51686;46.758;4.356;2023-11-25T14:24:04;8.23;;;3.10;;
65096;SDS011;51686;46.758;4.356;2023-11-25T14:26:51;8.98;;;3.42;;
65096;SDS011;51686;46.758;4.356;2023-11-25T14:29:38;8.68;;;2.95;;
65096;SDS011;51686;46.758;4.356;2023-11-25T14:32:25;7.90;;;2.85;;
65096;SDS011;51686;46.758;4.356;2023-11-25T14:35:12;7.78;;;2.88;;
65096;SDS011;51686;46.758;4.356;2023-11-25T14:37:59;7.30;;;3.00;;
65096;SDS011;51686;46.758;4.356;2023-11-25T14:40:48;6.15;;;2.60;;
65096;SDS011;51686;46.758;4.356;2023-11-25T14:43:35;7.05;;;2.70;;
65096;SDS011;51686;46.758;4.356;2023-11-25T14:46:22;6.45;;;2.60;;
65096;SDS011;51686;46.758;4.356;2023-11-25T14:49:09;6.18;;;2.50;;
65096;SDS011;51686;46.758;4.356;2023-11-25T14:51:56;9.13;;;3.30;;
65096;SDS011;51686;46.758;4.356;2023-11-25T14:54:43;7.22;;;2.65;;
65096;SDS011;51686;46.758;4.356;2023-11-25T14:57:31;6.47;;;2.40;;
65096;SDS011;51686;46.758;4.356;2023-11-25T15:00:18;7.28;;;2.60;;
65096;SDS011;51686;46.758;4.356;2023-11-25T15:03:05;8.23;;;2.70;;
65096;SDS011;51686;46.758;4.356;2023-11-25T15:05:55;7.22;;;2.50;;
65096;SDS011;51686;46.758;4.356;2023-11-25T15:08:42;7.22;;;2.72;;
65096;SDS011;51686;46.758;4.356;2023-11-25T15:11:29;7.28;;;2.65;;
65096;SDS011;51686;46.758;4.356;2023-11-25T15:14:16;6.97;;;2.70;;
65096;SDS011;51686;46.758;4.356;2023-11-25T15:17:04;8.73;;;2.83;;
65096;SDS011;51686;46.758;4.356;2023-11-25T15:20:14;9.35;;;3.35;;
65096;SDS011;51686;46.758;4.356;2023-11-25T15:23:01;6.22;;;2.22;;
65096;SDS011;51686;46.758;4.356;2023-11-25T15:25:50;5.63;;;2.20;;
65096;SDS011;51686;46.758;4.356;2023-11-25T15:28:40;5.75;;;2.40;;
65096;SDS011;51686;46.758;4.356;2023-11-25T15:31:28;3.78;;;1.85;;
65096;SDS011;51686;46.758;4.356;2023-11-25T15:34:15;6.68;;;2.45;;
65096;SDS011;51686;46.758;4.356;2023-11-25T15:37:03;5.53;;;2.28;;
65096;SDS011;51686;46.758;4.356;2023-11-25T15:39:50;9.38;;;2.40;;
65096;SDS011;51686;46.758;4.356;2023-11-25T15:42:37;6.28;;;2.30;;
65096;SDS011;51686;46.758;4.356;2023-11-25T15:45:24;6.75;;;2.20;;
65096;SDS011;51686;46.758;4.356;2023-11-25T15:48:11;6.20;;;2.28;;
65096;SDS011;51686;46.758;4.356;2023-11-25T15:50:58;7.13;;;2.28;;
65096;SDS011;51686;46.758;4.356;2023-11-25T15:53:46;5.68;;;2.28;;
65096;SDS011;51686;46.758;4.356;2023-11-25T15:56:33;7.00;;;2.70;;
65096;SDS011;51686;46.758;4.356;2023-11-25T15:59:19;7.22;;;2.35;;
65096;SDS011;51686;46.758;4.356;2023-11-25T16:02:10;5.50;;;2.30;;
65096;SDS011;51686;46.758;4.356;2023-11-25T16:04:57;5.53;;;1.95;;
65096;SDS011;51686;46.758;4.356;2023-11-25T16:07:44;5.90;;;2.10;;
65096;SDS011;51686;46.758;4.356;2023-11-25T16:10:31;7.20;;;2.50;;
65096;SDS011;51686;46.758;4.356;2023-11-25T16:13:21;5.70;;;2.20;;
65096;SDS011;51686;46.758;4.356;2023-11-25T16:16:09;5.57;;;2.40;;
65096;SDS011;51686;46.758;4.356;2023-11-25T16:18:56;5.20;;;2.10;;
65096;SDS011;51686;46.758;4.356;2023-11-25T16:21:43;5.18;;;2.10;;
65096;SDS011;51686;46.758;4.356;2023-11-25T16:24:31;7.30;;;2.33;;
65096;SDS011;51686;46.758;4.356;2023-11-25T16:27:18;5.05;;;2.20;;
65096;SDS011;51686;46.758;4.356;2023-11-25T16:30:05;6.28;;;2.65;;
65096;SDS011;51686;46.758;4.356;2023-11-25T16:32:53;4.93;;;2.00;;
65096;SDS011;51686;46.758;4.356;2023-11-25T16:35:41;6.22;;;2.28;;
65096;SDS011;51686;46.758;4.356;2023-11-25T16:38:28;4.60;;;2.10;;
65096;SDS011;51686;46.758;4.356;2023-11-25T16:44:07;7.32;;;2.72;;
65096;SDS011;51686;46.758;4.356;2023-11-25T16:46:54;6.93;;;2.28;;
65096;SDS011;51686;46.758;4.356;2023-11-25T16:49:41;3.75;;;2.10;;
65096;SDS011;51686;46.758;4.356;2023-11-25T16:52:28;6.13;;;2.30;;
65096;SDS011;51686;46.758;4.356;2023-11-25T16:55:15;5.95;;;2.10;;
65096;SDS011;51686;46.758;4.356;2023-11-25T16:58:02;4.97;;;2.28;;
65096;SDS011;51686;46.758;4.356;2023-11-25T17:00:49;5.70;;;2.40;;
65096;SDS011;51686;46.758;4.356;2023-11-25T17:03:37;4.93;;;2.15;;
65096;SDS011;51686;46.758;4.356;2023-11-25T17:06:25;3.92;;;2.22;;
65096;SDS011;51686;46.758;4.356;2023-11-25T17:09:11;5.82;;;2.30;;
65096;SDS011;51686;46.758;4.356;2023-11-25T17:11:59;5.63;;;2.15;;
65096;SDS011;51686;46.758;4.356;2023-11-25T17:14:46;6.03;;;2.58;;
65096;SDS011;51686;46.758;4.356;2023-11-25T17:17:33;5.00;;;2.22;;